Startpagina
METAR-TAF:

METAR-TAF

Vliegvelden :

Niamey, Niger

Luchthaven Diori Hamani

breedte: 13-29N, lengte: 002-10E, hoogte: 223 m

Actueel weer

Dit bericht is 1 uur en het 5 minuten geleden gemaakt, om 11:00 UTC
Wind 4 kt uit het oosten, variërend tussen het noorden en het zuidzuidoosten
Temperatuur 36°C
Vochtigheid 8%
Druk 1010 hPa
Zicht: 8000 m

METAR: DRRN 191100Z 08004KT 350V160 8000 NSC 36/M03 Q1010 NOSIG

Tijdstip: 13:05 (12:05 UTC)

Verwachting

Dit bericht is 1 uur en het 5 minuten geleden gemaakt, om 11:00 UTC
Verwachting geldig van 19 om 12 UTC tot 20 om 18 UTC
Wind 8 kt uit het oosten
Zicht: 8000 m
Tijdelijke
van 19 om 18 UTC tot 19 om 21 UTC
Zicht: 4000 m
verspreid stof
Tijdelijke
van 20 om 06 UTC tot 20 om 09 UTC
Zicht: 4000 m
verspreid stof

TAF: DRRN 191100Z 1912/2018 08008KT 8000 NSC TEMPO 1918/1921 4000 DU TEMPO 2006/2009 4000 DU

Waarnemingen en weersverwachtingen van meer dan 4000 vliegvelden (METAR en TAF).

De beschikbare stations zijn de gele en rode punten op de kaart.

Ga met uw muis naar het station om de naam te zien.

Klik dan om waarnemingen en weersverwachtingen te zien.

kaart wijzigen: klik op de groene knoppen met een zwart kruis om in te zoomen, op de groene knop met een streepje om uit te zoomen of op de groene pijlen voor aangrenzende kaarten.


METAR-TAF: